createdAt,value
2023-03-12T00:00:49.867Z,51.14
2023-03-12T00:03:17.849Z,50.73
2023-03-12T00:05:45.952Z,50.58
2023-03-12T00:08:13.615Z,50.18
2023-03-12T00:10:41.236Z,49.30
2023-03-12T00:13:09.053Z,47.69
2023-03-12T00:15:38.319Z,48.17
2023-03-12T00:18:06.092Z,47.67
2023-03-12T00:20:33.689Z,46.91
2023-03-12T00:23:01.111Z,46.84
2023-03-12T00:25:28.737Z,44.83
2023-03-12T00:27:56.496Z,45.37
2023-03-12T00:30:23.893Z,45.99
2023-03-12T00:32:51.616Z,45.63
2023-03-12T00:35:19.005Z,45.60
2023-03-12T00:37:46.430Z,45.44
2023-03-12T00:40:14.177Z,45.30
2023-03-12T00:42:41.611Z,45.15
2023-03-12T00:45:09.287Z,44.53
2023-03-12T00:47:36.951Z,44.93
2023-03-12T00:50:04.799Z,45.54
2023-03-12T00:52:32.211Z,46.31
2023-03-12T00:54:59.845Z,45.52
2023-03-12T00:57:28.036Z,45.38
2023-03-12T00:59:55.453Z,46.07
2023-03-12T01:02:23.144Z,45.28
2023-03-12T01:04:50.496Z,45.44
2023-03-12T01:07:17.833Z,45.14
2023-03-12T01:09:45.478Z,46.58
2023-03-12T01:12:12.811Z,46.58
2023-03-12T01:14:40.160Z,46.72
2023-03-12T01:17:08.576Z,47.59
2023-03-12T01:19:36.248Z,47.94
2023-03-12T01:22:04.340Z,47.75
2023-03-12T01:24:32.292Z,47.54
2023-03-12T01:26:59.721Z,47.01
2023-03-12T01:29:27.115Z,47.20
2023-03-12T01:31:54.766Z,47.05
2023-03-12T01:34:22.282Z,47.12
2023-03-12T01:36:49.638Z,47.39
2023-03-12T01:39:17.315Z,47.15
2023-03-12T01:41:44.699Z,47.55
2023-03-12T01:44:14.612Z,47.03
2023-03-12T01:46:44.161Z,46.97
2023-03-12T01:49:23.442Z,47.32
2023-03-12T01:52:00.029Z,47.94
2023-03-12T01:54:33.373Z,48.94
2023-03-12T01:57:03.412Z,49.83
2023-03-12T01:59:38.284Z,50.16
2023-03-12T02:02:06.588Z,50.82
2023-03-12T02:04:34.847Z,51.30
2023-03-12T02:07:02.208Z,50.80
2023-03-12T02:09:33.826Z,50.72
2023-03-12T02:12:01.606Z,51.36
2023-03-12T02:14:29.247Z,50.78
2023-03-12T02:16:57.724Z,51.20
2023-03-12T02:19:50.171Z,51.25
2023-03-12T02:22:18.185Z,51.04
2023-03-12T02:25:04.501Z,50.24
2023-03-12T02:27:34.328Z,51.30
2023-03-12T02:30:03.307Z,50.58
2023-03-12T02:32:35.298Z,51.20
2023-03-12T02:35:04.464Z,50.90
2023-03-12T02:37:32.527Z,50.97
2023-03-12T02:40:08.598Z,50.89
2023-03-12T02:42:36.405Z,51.55
2023-03-12T02:45:04.014Z,52.17
2023-03-12T02:47:31.482Z,52.23
2023-03-12T02:49:59.101Z,52.06
2023-03-12T02:52:26.451Z,53.41
2023-03-12T02:54:54.314Z,52.93
2023-03-12T02:57:22.088Z,52.76
2023-03-12T02:59:49.552Z,52.35
2023-03-12T03:02:16.986Z,52.94
2023-03-12T03:04:44.777Z,52.95
2023-03-12T03:07:12.213Z,53.42
2023-03-12T03:09:39.625Z,53.54
2023-03-12T03:12:08.006Z,53.65
2023-03-12T03:14:35.946Z,53.65
2023-03-12T03:17:04.556Z,53.54
2023-03-12T03:19:32.230Z,53.67
2023-03-12T03:21:59.614Z,54.33
2023-03-12T03:24:27.064Z,54.22
2023-03-12T03:26:54.776Z,54.66
2023-03-12T03:29:22.189Z,53.90
2023-03-12T03:31:49.726Z,53.84
2023-03-12T03:34:17.436Z,53.54
2023-03-12T03:36:44.790Z,54.28
2023-03-12T03:39:12.515Z,53.66
2023-03-12T03:41:40.269Z,53.91
2023-03-12T03:44:08.055Z,55.01
2023-03-12T03:46:35.960Z,55.58
2023-03-12T03:49:04.373Z,55.05
2023-03-12T03:51:32.812Z,55.07
2023-03-12T03:54:00.707Z,54.41
2023-03-12T03:56:28.704Z,54.84
2023-03-12T03:58:58.302Z,54.49
2023-03-12T04:01:26.201Z,54.19
2023-03-12T04:03:55.322Z,54.01
2023-03-12T04:06:22.702Z,53.96
2023-03-12T04:08:50.411Z,53.69
2023-03-12T04:11:21.069Z,53.24
2023-03-12T04:13:49.683Z,53.32
2023-03-12T04:16:18.201Z,53.03
2023-03-12T04:18:46.334Z,53.38
2023-03-12T04:21:14.884Z,53.04
2023-03-12T04:23:42.450Z,53.16
2023-03-12T04:26:10.383Z,52.90
2023-03-12T04:28:38.310Z,52.86
2023-03-12T04:31:07.699Z,52.72
2023-03-12T04:33:37.573Z,53.11
2023-03-12T04:36:05.537Z,52.79
2023-03-12T04:38:33.671Z,52.58
2023-03-12T04:41:04.072Z,52.95
2023-03-12T04:43:32.134Z,52.90
2023-03-12T04:46:00.005Z,53.48
2023-03-12T04:48:28.263Z,53.08
2023-03-12T04:50:55.755Z,53.15
2023-03-12T04:53:24.152Z,52.86
2023-03-12T04:55:52.489Z,52.34
2023-03-12T04:58:20.707Z,52.47
2023-03-12T05:00:49.393Z,52.35
2023-03-12T05:03:18.121Z,52.65
2023-03-12T05:05:45.907Z,53.39
2023-03-12T05:08:13.570Z,54.18
2023-03-12T05:10:41.414Z,55.15
2023-03-12T05:13:26.752Z,54.68
2023-03-12T05:15:55.206Z,55.93
2023-03-12T05:18:22.781Z,55.57
2023-03-12T05:21:00.017Z,56.50
2023-03-12T05:23:28.346Z,55.39
2023-03-12T05:25:55.771Z,54.75
2023-03-12T05:28:27.776Z,54.12
2023-03-12T05:30:56.016Z,54.39
2023-03-12T05:33:24.261Z,53.88
2023-03-12T05:35:51.756Z,53.23
2023-03-12T05:38:19.707Z,53.59
2023-03-12T05:40:54.782Z,53.67
2023-03-12T05:43:23.454Z,54.10
2023-03-12T05:45:51.260Z,53.61
2023-03-12T05:48:19.950Z,54.42
2023-03-12T05:50:49.496Z,54.24
2023-03-12T05:53:16.918Z,54.23
2023-03-12T05:55:44.362Z,53.76
2023-03-12T05:58:13.125Z,53.24
2023-03-12T06:00:41.700Z,52.32
2023-03-12T06:03:10.109Z,52.27
2023-03-12T06:05:38.157Z,51.78
2023-03-12T06:08:06.609Z,51.01
2023-03-12T06:10:34.394Z,51.35
2023-03-12T06:13:01.952Z,51.40
2023-03-12T06:15:29.393Z,51.68
2023-03-12T06:17:57.156Z,51.19
2023-03-12T06:20:24.518Z,50.15
2023-03-12T06:22:51.989Z,50.50
2023-03-12T06:25:19.639Z,50.94
2023-03-12T06:27:47.393Z,49.96
2023-03-12T06:30:15.301Z,48.92
2023-03-12T06:32:42.988Z,48.32
2023-03-12T06:35:10.496Z,48.73
2023-03-12T06:37:37.893Z,48.90
2023-03-12T06:40:09.802Z,49.04
2023-03-12T06:42:37.387Z,48.60
2023-03-12T06:45:05.828Z,48.19
2023-03-12T06:47:33.188Z,48.43
2023-03-12T06:50:00.573Z,48.83
2023-03-12T06:52:28.410Z,49.25
2023-03-12T06:54:55.830Z,48.42
2023-03-12T06:57:23.205Z,48.16
2023-03-12T06:59:51.566Z,47.73
2023-03-12T07:02:19.033Z,46.70
2023-03-12T07:04:46.779Z,47.82
2023-03-12T07:07:14.505Z,48.08
2023-03-12T07:09:41.906Z,47.24
2023-03-12T07:12:09.484Z,48.20
2023-03-12T07:14:37.141Z,48.11
2023-03-12T07:17:04.738Z,47.83
2023-03-12T07:19:32.214Z,47.64
2023-03-12T07:21:59.957Z,46.72
2023-03-12T07:24:27.408Z,47.46
2023-03-12T07:26:54.950Z,46.38
2023-03-12T07:29:22.578Z,45.91
2023-03-12T07:31:50.185Z,46.34
2023-03-12T07:34:17.716Z,46.18
2023-03-12T07:36:45.575Z,46.59
2023-03-12T07:39:13.350Z,46.54
2023-03-12T07:41:40.843Z,46.35
2023-03-12T07:44:10.907Z,46.14
2023-03-12T07:46:38.710Z,45.21
2023-03-12T07:49:06.076Z,45.00
2023-03-12T07:51:33.749Z,45.49
2023-03-12T07:54:01.126Z,45.27
2023-03-12T07:56:28.635Z,44.51
2023-03-12T07:58:56.516Z,45.27
2023-03-12T08:01:25.447Z,45.28
2023-03-12T08:03:53.200Z,45.45
2023-03-12T08:06:21.744Z,44.52
2023-03-12T08:08:49.216Z,44.65
2023-03-12T08:11:16.983Z,43.89
2023-03-12T08:13:44.448Z,43.99
2023-03-12T08:16:12.220Z,44.12
2023-03-12T08:18:40.028Z,43.77
2023-03-12T08:21:07.454Z,43.55
2023-03-12T08:23:35.674Z,42.85
2023-03-12T08:26:03.338Z,42.52
2023-03-12T08:28:30.909Z,42.19
2023-03-12T08:30:59.793Z,42.09
2023-03-12T08:33:27.554Z,41.10
2023-03-12T08:35:55.091Z,41.16
2023-03-12T08:38:22.915Z,42.06
2023-03-12T08:41:00.429Z,41.38
2023-03-12T08:43:29.435Z,41.52
2023-03-12T08:45:58.902Z,41.99
2023-03-12T08:48:26.899Z,40.51
2023-03-12T08:50:58.350Z,39.33
2023-03-12T08:53:26.793Z,39.59
2023-03-12T08:55:54.839Z,44.99
2023-03-12T08:58:23.399Z,37.65
2023-03-12T09:00:52.004Z,40.17
2023-03-12T09:03:21.582Z,40.33
2023-03-12T09:05:49.847Z,42.22
2023-03-12T09:08:17.677Z,37.81
2023-03-12T09:10:50.171Z,37.89
2023-03-12T09:13:17.861Z,36.08
2023-03-12T09:15:45.214Z,37.16
2023-03-12T09:18:12.720Z,37.98
2023-03-12T09:20:42.588Z,37.47
2023-03-12T09:23:10.213Z,36.61
2023-03-12T09:25:37.790Z,37.40
2023-03-12T09:28:05.468Z,37.11
2023-03-12T09:30:33.113Z,37.81
2023-03-12T09:33:00.530Z,36.25
2023-03-12T09:35:28.197Z,37.01
2023-03-12T09:37:55.513Z,36.32
2023-03-12T09:40:25.775Z,36.34
2023-03-12T09:42:57.549Z,36.51
2023-03-12T09:45:27.599Z,36.33
2023-03-12T09:47:57.775Z,35.65
2023-03-12T09:50:29.556Z,35.98
2023-03-12T09:53:11.417Z,36.34
2023-03-12T09:55:41.352Z,35.01
2023-03-12T09:58:34.627Z,34.86
2023-03-12T10:01:29.289Z,35.26
2023-03-12T10:04:12.321Z,34.76
2023-03-12T10:06:55.559Z,34.37
2023-03-12T10:09:23.203Z,34.23
2023-03-12T10:12:32.067Z,33.55
2023-03-12T10:15:17.990Z,35.40
2023-03-12T10:18:30.757Z,34.74
2023-03-12T10:21:01.030Z,34.11
2023-03-12T10:24:10.116Z,34.38
2023-03-12T10:26:43.506Z,33.70
2023-03-12T10:29:24.560Z,32.76
2023-03-12T10:31:59.736Z,31.58
2023-03-12T10:34:53.036Z,32.20
2023-03-12T10:37:26.500Z,30.92
2023-03-12T10:40:00.208Z,32.11
2023-03-12T10:42:30.050Z,32.02
2023-03-12T10:45:10.991Z,30.47
2023-03-12T10:47:40.754Z,30.28
2023-03-12T10:50:17.390Z,30.17
2023-03-12T10:52:46.827Z,31.00
2023-03-12T10:55:21.032Z,30.46
2023-03-12T10:57:49.585Z,28.58
2023-03-12T11:00:26.005Z,30.22
2023-03-12T11:02:56.396Z,30.10
2023-03-12T11:05:27.168Z,30.30
2023-03-12T11:07:54.917Z,30.84
2023-03-12T11:10:24.676Z,30.07
2023-03-12T11:12:58.213Z,29.39
2023-03-12T11:15:28.839Z,27.68
2023-03-12T11:18:18.019Z,26.32
2023-03-12T11:20:46.087Z,27.19
2023-03-12T11:23:20.572Z,25.97
2023-03-12T11:25:56.739Z,25.27
2023-03-12T11:28:28.658Z,23.98
2023-03-12T11:30:58.167Z,22.23
2023-03-12T11:33:26.005Z,22.46
2023-03-12T11:35:58.566Z,21.04
2023-03-12T11:38:40.481Z,22.33
2023-03-12T11:41:23.193Z,24.43
2023-03-12T11:43:59.825Z,23.58
2023-03-12T11:46:31.683Z,26.03
2023-03-12T11:49:11.867Z,22.92
2023-03-12T11:52:10.457Z,22.94
2023-03-12T11:55:03.041Z,26.41
2023-03-12T11:57:58.797Z,24.43
2023-03-12T12:00:35.335Z,25.74
2023-03-12T12:03:28.127Z,32.52
2023-03-12T12:06:02.348Z,26.34
2023-03-12T12:08:39.642Z,20.98
2023-03-12T12:11:13.080Z,21.08
2023-03-12T12:13:52.852Z,21.42
2023-03-12T12:16:28.970Z,20.04
2023-03-12T12:19:18.285Z,19.82
2023-03-12T12:21:51.724Z,20.25
2023-03-12T12:25:07.583Z,21.16
2023-03-12T12:28:23.537Z,20.33
2023-03-12T12:31:15.570Z,21.07
2023-03-12T12:33:52.577Z,21.13
2023-03-12T12:36:20.257Z,20.89
2023-03-12T12:38:54.177Z,20.21
2023-03-12T12:41:26.426Z,21.47
2023-03-12T12:44:05.674Z,21.30
2023-03-12T12:46:40.074Z,21.59
2023-03-12T12:49:13.917Z,22.25
2023-03-12T12:51:48.209Z,22.20
2023-03-12T12:54:27.748Z,22.81
2023-03-12T12:57:04.156Z,23.11
2023-03-12T12:59:41.066Z,23.53
2023-03-12T13:02:21.063Z,21.88
2023-03-12T13:04:48.878Z,21.81
2023-03-12T13:07:16.428Z,21.71
2023-03-12T13:09:50.701Z,22.54
2023-03-12T13:12:20.558Z,22.84
2023-03-12T13:14:48.908Z,23.56
2023-03-12T13:17:35.307Z,22.59
2023-03-12T13:20:12.047Z,21.96
2023-03-12T13:23:14.429Z,20.78
2023-03-12T13:26:08.929Z,20.48
2023-03-12T13:29:11.389Z,21.68
2023-03-12T13:31:42.248Z,21.53
2023-03-12T13:34:12.826Z,21.87
2023-03-12T13:36:40.519Z,21.80
2023-03-12T13:39:07.828Z,21.74
2023-03-12T13:41:49.846Z,20.68
2023-03-12T13:44:23.402Z,20.91
2023-03-12T13:47:12.149Z,22.20
2023-03-12T13:49:51.476Z,21.60
2023-03-12T13:52:27.360Z,21.87
2023-03-12T13:55:28.661Z,21.66
2023-03-12T13:58:23.354Z,21.97
2023-03-12T14:01:05.969Z,21.49
2023-03-12T14:03:40.599Z,22.29
2023-03-12T14:06:13.151Z,20.95
2023-03-12T14:09:01.450Z,20.79
2023-03-12T14:11:55.051Z,20.62
2023-03-12T14:14:36.809Z,21.29
2023-03-12T14:17:05.696Z,20.55
2023-03-12T14:19:35.120Z,21.05
2023-03-12T14:22:05.725Z,20.60
2023-03-12T14:24:37.331Z,20.57
2023-03-12T14:27:06.227Z,18.91
2023-03-12T14:29:39.557Z,20.77
2023-03-12T14:32:23.155Z,20.88
2023-03-12T14:34:58.894Z,20.86
2023-03-12T14:37:31.055Z,19.92
2023-03-12T14:40:00.702Z,20.12
2023-03-12T14:42:31.628Z,21.00
2023-03-12T14:45:01.568Z,21.11
2023-03-12T14:47:29.059Z,21.53
2023-03-12T14:49:57.748Z,21.78
2023-03-12T14:52:30.586Z,22.65
2023-03-12T14:54:57.876Z,20.90
2023-03-12T14:57:25.912Z,21.47
2023-03-12T14:59:55.385Z,21.40
2023-03-12T15:02:23.556Z,22.16
2023-03-12T15:04:55.263Z,21.90
2023-03-12T15:07:31.467Z,21.97
2023-03-12T15:09:59.378Z,21.45
2023-03-12T15:12:31.385Z,22.00
2023-03-12T15:15:07.282Z,21.40
2023-03-12T15:17:35.042Z,20.98
2023-03-12T15:20:10.444Z,21.12
2023-03-12T15:22:38.480Z,21.11
2023-03-12T15:25:25.288Z,20.99
2023-03-12T15:28:24.429Z,20.76
2023-03-12T15:31:12.329Z,21.42
2023-03-12T15:33:40.897Z,20.88
2023-03-12T15:36:14.949Z,20.57
2023-03-12T15:38:51.006Z,20.45
2023-03-12T15:41:22.357Z,21.46
2023-03-12T15:43:53.041Z,20.50
2023-03-12T15:46:20.934Z,21.09
2023-03-12T15:48:51.114Z,21.17
2023-03-12T15:51:35.071Z,21.39
2023-03-12T15:54:24.490Z,21.20
2023-03-12T15:56:51.877Z,21.16
2023-03-12T15:59:27.134Z,21.42
2023-03-12T16:01:56.563Z,24.35
2023-03-12T16:04:24.600Z,22.62
2023-03-12T16:06:53.454Z,21.94
2023-03-12T16:09:24.580Z,22.30
2023-03-12T16:11:54.050Z,22.36
2023-03-12T16:14:24.853Z,22.38
2023-03-12T16:16:53.161Z,22.55
2023-03-12T16:19:22.745Z,22.86
2023-03-12T16:21:50.403Z,22.83
2023-03-12T16:24:18.120Z,22.93
2023-03-12T16:26:52.692Z,22.89
2023-03-12T16:29:21.344Z,22.96
2023-03-12T16:31:55.135Z,22.97
2023-03-12T16:34:23.150Z,23.38
2023-03-12T16:36:50.906Z,23.82
2023-03-12T16:39:19.060Z,23.89
2023-03-12T16:41:47.235Z,24.27
2023-03-12T16:44:19.201Z,24.53
2023-03-12T16:46:47.318Z,25.04
2023-03-12T16:49:16.972Z,25.36
2023-03-12T16:51:44.389Z,25.28
2023-03-12T16:54:12.668Z,25.85
2023-03-12T16:56:45.395Z,26.12
2023-03-12T16:59:25.859Z,26.20
2023-03-12T17:01:53.502Z,26.34
2023-03-12T17:04:21.232Z,27.33
2023-03-12T17:06:48.647Z,27.95
2023-03-12T17:09:16.030Z,27.95
2023-03-12T17:11:43.675Z,28.27
2023-03-12T17:14:18.139Z,28.98
2023-03-12T17:16:45.847Z,29.47
2023-03-12T17:19:13.557Z,29.69
2023-03-12T17:21:41.211Z,29.78
2023-03-12T17:24:11.107Z,29.75
2023-03-12T17:26:38.526Z,29.75
2023-03-12T17:29:05.970Z,30.30
2023-03-12T17:31:33.681Z,30.75
2023-03-12T17:34:03.812Z,30.86
2023-03-12T17:36:31.325Z,30.93
2023-03-12T17:38:59.038Z,31.82
2023-03-12T17:41:27.393Z,31.88
2023-03-12T17:43:55.342Z,31.72
2023-03-12T17:46:23.172Z,31.79
2023-03-12T17:48:50.597Z,31.87
2023-03-12T17:51:17.993Z,31.71
2023-03-12T17:53:46.428Z,32.22
2023-03-12T17:56:15.562Z,32.74
2023-03-12T17:58:43.416Z,33.30
2023-03-12T18:01:12.695Z,33.28
2023-03-12T18:03:42.784Z,33.32
2023-03-12T18:06:11.060Z,33.15
2023-03-12T18:08:38.663Z,33.75
2023-03-12T18:11:06.491Z,33.66
2023-03-12T18:13:33.887Z,33.89
2023-03-12T18:16:01.368Z,33.69
2023-03-12T18:18:29.217Z,34.16
2023-03-12T18:20:57.067Z,34.51
2023-03-12T18:23:25.511Z,34.32
2023-03-12T18:25:53.178Z,34.69
2023-03-12T18:28:20.942Z,34.67
2023-03-12T18:30:48.685Z,34.89
2023-03-12T18:33:16.875Z,34.59
2023-03-12T18:35:44.446Z,34.67
2023-03-12T18:38:12.159Z,35.13
2023-03-12T18:40:39.820Z,35.44
2023-03-12T18:43:07.216Z,35.57
2023-03-12T18:45:34.609Z,35.71
2023-03-12T18:48:02.367Z,35.92
2023-03-12T18:50:29.793Z,35.88
2023-03-12T18:52:57.219Z,36.33
2023-03-12T18:55:24.887Z,36.42
2023-03-12T18:57:52.561Z,36.45
2023-03-12T19:00:20.115Z,36.63
2023-03-12T19:02:48.459Z,36.78
2023-03-12T19:05:16.436Z,36.52
2023-03-12T19:07:43.970Z,36.68
2023-03-12T19:10:12.572Z,36.97
2023-03-12T19:12:51.723Z,36.87
2023-03-12T19:15:22.151Z,37.07
2023-03-12T19:17:49.925Z,37.02
2023-03-12T19:20:17.545Z,37.08
2023-03-12T19:22:45.291Z,37.07
2023-03-12T19:25:12.685Z,36.88
2023-03-12T19:27:40.020Z,37.06
2023-03-12T19:30:08.444Z,37.48
2023-03-12T19:32:43.312Z,37.15
2023-03-12T19:35:13.130Z,37.24
2023-03-12T19:37:40.972Z,37.44
2023-03-12T19:40:10.567Z,38.00
2023-03-12T19:42:38.375Z,38.14
2023-03-12T19:45:06.282Z,38.44
2023-03-12T19:47:33.721Z,38.66
2023-03-12T19:50:01.352Z,37.92
2023-03-12T19:52:29.070Z,37.72
2023-03-12T19:55:04.304Z,37.67
2023-03-12T19:57:33.783Z,38.37
2023-03-12T20:00:01.560Z,37.67
2023-03-12T20:02:32.062Z,37.89
2023-03-12T20:04:59.776Z,37.46
2023-03-12T20:07:27.290Z,38.07
2023-03-12T20:09:54.708Z,38.88
2023-03-12T20:12:22.486Z,38.77
2023-03-12T20:14:49.904Z,41.44
2023-03-12T20:17:17.347Z,39.25
2023-03-12T20:19:45.055Z,38.99
2023-03-12T20:22:12.549Z,38.61
2023-03-12T20:24:39.973Z,39.56
2023-03-12T20:27:07.668Z,39.55
2023-03-12T20:29:35.299Z,39.16
2023-03-12T20:32:02.870Z,39.86
2023-03-12T20:34:30.517Z,39.99
2023-03-12T20:36:58.274Z,39.50
2023-03-12T20:39:25.677Z,39.22
2023-03-12T20:41:53.420Z,39.18
2023-03-12T20:44:20.797Z,39.38
2023-03-12T20:46:48.237Z,39.41
2023-03-12T20:49:16.181Z,39.84
2023-03-12T20:51:44.692Z,39.89
2023-03-12T20:54:12.337Z,39.97
2023-03-12T20:56:45.956Z,40.18
2023-03-12T20:59:13.334Z,40.39
2023-03-12T21:01:41.064Z,40.60
2023-03-12T21:04:08.614Z,40.32
2023-03-12T21:06:36.124Z,40.14
2023-03-12T21:09:04.014Z,39.81
2023-03-12T21:11:32.156Z,39.89
2023-03-12T21:13:59.616Z,39.92
2023-03-12T21:16:30.886Z,40.08
2023-03-12T21:18:58.350Z,40.09
2023-03-12T21:21:25.878Z,39.96
2023-03-12T21:23:53.650Z,39.91
2023-03-12T21:26:21.894Z,40.08
2023-03-12T21:28:49.318Z,39.88
2023-03-12T21:31:17.699Z,40.59
2023-03-12T21:33:45.307Z,40.45
2023-03-12T21:36:14.249Z,40.55
2023-03-12T21:38:43.086Z,40.90
2023-03-12T21:41:12.678Z,40.84
2023-03-12T21:43:40.631Z,40.88
2023-03-12T21:46:13.461Z,40.96
2023-03-12T21:48:44.245Z,41.04
2023-03-12T21:51:13.579Z,39.78
2023-03-12T21:53:41.073Z,39.18
2023-03-12T21:56:08.741Z,38.78
2023-03-12T21:58:36.494Z,38.08
2023-03-12T22:01:09.038Z,37.73
2023-03-12T22:03:37.439Z,37.72
2023-03-12T22:06:05.513Z,37.76
2023-03-12T22:08:33.701Z,36.91
2023-03-12T22:11:01.443Z,36.65
2023-03-12T22:13:28.849Z,36.27
2023-03-12T22:15:58.626Z,36.54
2023-03-12T22:18:27.335Z,36.20
2023-03-12T22:20:56.365Z,36.20
2023-03-12T22:23:25.011Z,36.19
2023-03-12T22:25:52.637Z,36.13
2023-03-12T22:28:20.270Z,36.23
2023-03-12T22:30:47.996Z,35.96
2023-03-12T22:33:15.680Z,35.90
2023-03-12T22:35:44.894Z,36.43
2023-03-12T22:38:12.696Z,36.14
2023-03-12T22:40:42.335Z,36.13
2023-03-12T22:43:13.388Z,36.17
2023-03-12T22:45:41.101Z,36.08
2023-03-12T22:48:09.497Z,36.29
2023-03-12T22:50:36.832Z,36.38
2023-03-12T22:53:04.594Z,36.37
2023-03-12T22:55:32.084Z,36.48
2023-03-12T22:57:59.474Z,36.95
2023-03-12T23:00:27.216Z,36.65
2023-03-12T23:02:54.611Z,36.38
2023-03-12T23:05:22.004Z,37.02
2023-03-12T23:07:49.931Z,36.67
2023-03-12T23:10:17.298Z,37.02
2023-03-12T23:12:44.724Z,37.86
2023-03-12T23:15:12.403Z,37.94
2023-03-12T23:17:39.857Z,37.69
2023-03-12T23:20:09.018Z,37.74
2023-03-12T23:22:36.675Z,37.84
2023-03-12T23:25:04.726Z,37.85
2023-03-12T23:27:32.261Z,38.20
2023-03-12T23:29:59.943Z,38.12
2023-03-12T23:32:27.393Z,38.24
2023-03-12T23:34:54.753Z,38.28
2023-03-12T23:37:22.502Z,37.98
2023-03-12T23:39:54.942Z,37.96
2023-03-12T23:42:22.909Z,37.95
2023-03-12T23:44:50.331Z,38.21
2023-03-12T23:47:17.688Z,38.48
2023-03-12T23:49:45.358Z,38.57
2023-03-12T23:52:12.796Z,38.01
2023-03-12T23:54:40.195Z,38.01
2023-03-12T23:57:07.887Z,38.30
2023-03-12T23:59:35.457Z,38.38
